sensor_id;sensor_type;location;lat;lon;timestamp;pressure;altitude;pressure_sealevel;temperature;humidity
54453;BME280;40363;52.270;10.546;2023-10-31T00:01:39;74991.19;;;-147.06;100.00
54453;BME280;40363;52.270;10.546;2023-10-31T00:04:06;74964.50;;;-147.06;100.00
54453;BME280;40363;52.270;10.546;2023-10-31T00:06:32;74976.81;;;-147.06;100.00
54453;BME280;40363;52.270;10.546;2023-10-31T00:09:00;74985.03;;;-147.06;100.00
54453;BME280;40363;52.270;10.546;2023-10-31T00:11:27;74966.56;;;-147.06;100.00
54453;BME280;40363;52.270;10.546;2023-10-31T00:13:54;74978.88;;;-147.06;100.00
54453;BME280;40363;52.270;10.546;2023-10-31T00:16:20;74985.03;;;-147.06;100.00
54453;BME280;40363;52.270;10.546;2023-10-31T00:18:47;74995.31;;;-147.06;100.00
54453;BME280;40363;52.270;10.546;2023-10-31T00:21:13;74980.94;;;-147.06;100.00
54453;BME280;40363;52.270;10.546;2023-10-31T00:23:43;74960.38;;;-147.06;100.00
54453;BME280;40363;52.270;10.546;2023-10-31T00:26:11;74968.59;;;-147.06;100.00
54453;BME280;40363;52.270;10.546;2023-10-31T00:28:38;74989.16;;;-147.06;100.00
54453;BME280;40363;52.270;10.546;2023-10-31T00:31:05;74976.81;;;-147.06;100.00
54453;BME280;40363;52.270;10.546;2023-10-31T00:33:32;74985.03;;;-147.06;100.00
54453;BME280;40363;52.270;10.546;2023-10-31T00:35:58;74974.78;;;-147.06;100.00
54453;BME280;40363;52.270;10.546;2023-10-31T00:38:25;74985.03;;;-147.06;100.00
54453;BME280;40363;52.270;10.546;2023-10-31T00:40:52;74997.38;;;-147.06;100.00
54453;BME280;40363;52.270;10.546;2023-10-31T00:43:19;74968.59;;;-147.06;100.00
54453;BME280;40363;52.270;10.546;2023-10-31T00:45:46;74976.81;;;-147.06;100.00
54453;BME280;40363;52.270;10.546;2023-10-31T00:48:13;74987.09;;;-147.06;100.00
54453;BME280;40363;52.270;10.546;2023-10-31T00:50:39;74980.94;;;-147.06;100.00
54453;BME280;40363;52.270;10.546;2023-10-31T00:53:06;74978.88;;;-147.06;100.00
54453;BME280;40363;52.270;10.546;2023-10-31T00:55:33;74974.78;;;-147.06;100.00
54453;BME280;40363;52.270;10.546;2023-10-31T00:57:59;74993.25;;;-147.06;100.00
54453;BME280;40363;52.270;10.546;2023-10-31T01:00:27;74991.19;;;-147.06;100.00
54453;BME280;40363;52.270;10.546;2023-10-31T01:02:55;74985.03;;;-147.06;100.00
54453;BME280;40363;52.270;10.546;2023-10-31T01:05:21;74978.88;;;-147.06;100.00
54453;BME280;40363;52.270;10.546;2023-10-31T01:07:48;74985.03;;;-147.06;100.00
54453;BME280;40363;52.270;10.546;2023-10-31T01:10:14;74970.66;;;-147.06;100.00
54453;BME280;40363;52.270;10.546;2023-10-31T01:12:41;74995.31;;;-147.06;100.00
54453;BME280;40363;52.270;10.546;2023-10-31T01:15:08;74983.00;;;-147.06;100.00
54453;BME280;40363;52.270;10.546;2023-10-31T01:17:36;74991.19;;;-147.06;100.00
54453;BME280;40363;52.270;10.546;2023-10-31T01:20:05;74991.19;;;-147.06;100.00
54453;BME280;40363;52.270;10.546;2023-10-31T01:22:33;74989.16;;;-147.06;100.00
54453;BME280;40363;52.270;10.546;2023-10-31T01:25:00;74983.00;;;-147.06;100.00
54453;BME280;40363;52.270;10.546;2023-10-31T01:27:26;74983.00;;;-147.06;100.00
54453;BME280;40363;52.270;10.546;2023-10-31T01:29:53;74995.31;;;-147.06;100.00
54453;BME280;40363;52.270;10.546;2023-10-31T01:32:19;74993.25;;;-147.06;100.00
54453;BME280;40363;52.270;10.546;2023-10-31T01:34:47;74968.59;;;-147.06;100.00
54453;BME280;40363;52.270;10.546;2023-10-31T01:37:14;74976.81;;;-147.06;100.00
54453;BME280;40363;52.270;10.546;2023-10-31T01:39:40;74976.81;;;-147.06;100.00
54453;BME280;40363;52.270;10.546;2023-10-31T01:42:07;74972.72;;;-147.06;100.00
54453;BME280;40363;52.270;10.546;2023-10-31T01:44:34;74954.22;;;-147.06;100.00
54453;BME280;40363;52.270;10.546;2023-10-31T01:47:00;74968.59;;;-147.06;100.00
54453;BME280;40363;52.270;10.546;2023-10-31T01:49:27;74968.59;;;-147.06;100.00
54453;BME280;40363;52.270;10.546;2023-10-31T01:51:55;74956.28;;;-147.06;100.00
54453;BME280;40363;52.270;10.546;2023-10-31T01:54:21;74950.13;;;-147.06;100.00
54453;BME280;40363;52.270;10.546;2023-10-31T01:56:48;74962.44;;;-147.06;100.00
54453;BME280;40363;52.270;10.546;2023-10-31T01:59:18;74948.06;;;-147.06;100.00
54453;BME280;40363;52.270;10.546;2023-10-31T02:01:45;74948.06;;;-147.06;100.00
54453;BME280;40363;52.270;10.546;2023-10-31T02:04:12;74927.50;;;-147.06;100.00
54453;BME280;40363;52.270;10.546;2023-10-31T02:06:38;74913.13;;;-147.06;100.00
54453;BME280;40363;52.270;10.546;2023-10-31T02:09:07;74911.06;;;-147.06;100.00
54453;BME280;40363;52.270;10.546;2023-10-31T02:11:33;74906.97;;;-147.06;100.00
54453;BME280;40363;52.270;10.546;2023-10-31T02:14:01;74906.97;;;-147.06;100.00
54453;BME280;40363;52.270;10.546;2023-10-31T02:16:27;74923.41;;;-147.06;100.00
54453;BME280;40363;52.270;10.546;2023-10-31T02:18:54;74915.19;;;-147.06;100.00
54453;BME280;40363;52.270;10.546;2023-10-31T02:21:20;74898.75;;;-147.06;100.00
54453;BME280;40363;52.270;10.546;2023-10-31T02:23:57;74898.75;;;-147.06;100.00
54453;BME280;40363;52.270;10.546;2023-10-31T02:26:25;74915.19;;;-147.06;100.00
54453;BME280;40363;52.270;10.546;2023-10-31T02:28:54;74917.25;;;-147.06;100.00
54453;BME280;40363;52.270;10.546;2023-10-31T02:31:20;74898.75;;;-147.06;100.00
54453;BME280;40363;52.270;10.546;2023-10-31T02:33:47;74896.69;;;-147.06;100.00
54453;BME280;40363;52.270;10.546;2023-10-31T02:36:14;74890.53;;;-147.06;100.00
54453;BME280;40363;52.270;10.546;2023-10-31T02:38:40;74894.63;;;-147.06;100.00
54453;BME280;40363;52.270;10.546;2023-10-31T02:41:08;74882.31;;;-147.06;100.00
54453;BME280;40363;52.270;10.546;2023-10-31T02:43:35;74865.88;;;-147.06;100.00
54453;BME280;40363;52.270;10.546;2023-10-31T02:46:01;74861.75;;;-147.06;100.00
54453;BME280;40363;52.270;10.546;2023-10-31T02:48:28;74867.94;;;-147.06;100.00
54453;BME280;40363;52.270;10.546;2023-10-31T02:50:57;74861.75;;;-147.06;100.00
54453;BME280;40363;52.270;10.546;2023-10-31T02:53:23;74863.81;;;-147.06;100.00
54453;BME280;40363;52.270;10.546;2023-10-31T02:55:50;74865.88;;;-147.06;100.00
54453;BME280;40363;52.270;10.546;2023-10-31T02:58:18;74861.75;;;-147.06;100.00
54453;BME280;40363;52.270;10.546;2023-10-31T03:00:44;74859.72;;;-147.06;100.00
54453;BME280;40363;52.270;10.546;2023-10-31T03:03:11;74861.75;;;-147.06;100.00
54453;BME280;40363;52.270;10.546;2023-10-31T03:05:37;74853.53;;;-147.06;100.00
54453;BME280;40363;52.270;10.546;2023-10-31T03:08:04;74865.88;;;-147.06;100.00
54453;BME280;40363;52.270;10.546;2023-10-31T03:10:32;74861.75;;;-147.06;100.00
54453;BME280;40363;52.270;10.546;2023-10-31T03:12:59;74857.66;;;-147.06;100.00
54453;BME280;40363;52.270;10.546;2023-10-31T03:15:27;74845.34;;;-147.06;100.00
54453;BME280;40363;52.270;10.546;2023-10-31T03:17:53;74847.38;;;-147.06;100.00
54453;BME280;40363;52.270;10.546;2023-10-31T03:20:20;74841.22;;;-147.06;100.00
54453;BME280;40363;52.270;10.546;2023-10-31T03:22:47;74841.22;;;-147.06;100.00
54453;BME280;40363;52.270;10.546;2023-10-31T03:25:13;74833.00;;;-147.06;100.00
54453;BME280;40363;52.270;10.546;2023-10-31T03:27:40;74837.13;;;-147.06;100.00
54453;BME280;40363;52.270;10.546;2023-10-31T03:30:07;74830.94;;;-147.06;100.00
54453;BME280;40363;52.270;10.546;2023-10-31T03:32:36;74841.22;;;-147.06;100.00
54453;BME280;40363;52.270;10.546;2023-10-31T03:35:03;74845.34;;;-147.06;100.00
54453;BME280;40363;52.270;10.546;2023-10-31T03:37:29;74841.22;;;-147.06;100.00
54453;BME280;40363;52.270;10.546;2023-10-31T03:39:56;74830.94;;;-147.06;100.00
54453;BME280;40363;52.270;10.546;2023-10-31T03:42:22;74837.13;;;-147.06;100.00
54453;BME280;40363;52.270;10.546;2023-10-31T03:44:49;74828.91;;;-147.06;100.00
54453;BME280;40363;52.270;10.546;2023-10-31T03:47:15;74837.13;;;-147.06;100.00
54453;BME280;40363;52.270;10.546;2023-10-31T03:49:43;74835.06;;;-147.06;100.00
54453;BME280;40363;52.270;10.546;2023-10-31T03:52:10;74857.66;;;-147.06;100.00
54453;BME280;40363;52.270;10.546;2023-10-31T03:54:36;74841.22;;;-147.06;100.00
54453;BME280;40363;52.270;10.546;2023-10-31T03:57:03;74830.94;;;-147.06;100.00
54453;BME280;40363;52.270;10.546;2023-10-31T03:59:30;74833.00;;;-147.06;100.00
54453;BME280;40363;52.270;10.546;2023-10-31T04:01:56;74824.78;;;-147.06;100.00
54453;BME280;40363;52.270;10.546;2023-10-31T04:04:23;74826.84;;;-147.06;100.00
54453;BME280;40363;52.270;10.546;2023-10-31T04:06:51;74833.00;;;-147.06;100.00
54453;BME280;40363;52.270;10.546;2023-10-31T04:09:17;74830.94;;;-147.06;100.00
54453;BME280;40363;52.270;10.546;2023-10-31T04:11:44;74833.00;;;-147.06;100.00
54453;BME280;40363;52.270;10.546;2023-10-31T04:14:10;74837.13;;;-147.06;100.00
54453;BME280;40363;52.270;10.546;2023-10-31T04:16:38;74837.13;;;-147.06;100.00
54453;BME280;40363;52.270;10.546;2023-10-31T04:19:11;74837.13;;;-147.06;100.00
54453;BME280;40363;52.270;10.546;2023-10-31T04:21:37;74839.16;;;-147.06;100.00
54453;BME280;40363;52.270;10.546;2023-10-31T04:24:06;74828.91;;;-147.06;100.00
54453;BME280;40363;52.270;10.546;2023-10-31T04:26:32;74853.53;;;-147.06;100.00
54453;BME280;40363;52.270;10.546;2023-10-31T04:28:59;74865.88;;;-147.06;100.00
54453;BME280;40363;52.270;10.546;2023-10-31T04:31:26;74882.31;;;-147.06;100.00
54453;BME280;40363;52.270;10.546;2023-10-31T04:33:52;74886.41;;;-147.06;100.00
54453;BME280;40363;52.270;10.546;2023-10-31T04:36:19;74911.06;;;-147.06;100.00
54453;BME280;40363;52.270;10.546;2023-10-31T04:38:45;74900.81;;;-147.06;100.00
54453;BME280;40363;52.270;10.546;2023-10-31T04:41:13;74894.63;;;-147.06;100.00
54453;BME280;40363;52.270;10.546;2023-10-31T04:43:40;74919.28;;;-147.06;100.00
54453;BME280;40363;52.270;10.546;2023-10-31T04:46:07;74923.41;;;-147.06;100.00
54453;BME280;40363;52.270;10.546;2023-10-31T04:48:34;74925.47;;;-147.06;100.00
54453;BME280;40363;52.270;10.546;2023-10-31T04:51:01;74933.69;;;-147.06;100.00
54453;BME280;40363;52.270;10.546;2023-10-31T04:53:27;74935.72;;;-147.06;100.00
54453;BME280;40363;52.270;10.546;2023-10-31T04:55:54;74946.00;;;-147.06;100.00
54453;BME280;40363;52.270;10.546;2023-10-31T04:58:22;74948.06;;;-147.06;100.00
54453;BME280;40363;52.270;10.546;2023-10-31T05:00:49;74958.34;;;-147.06;100.00
54453;BME280;40363;52.270;10.546;2023-10-31T05:03:15;74950.13;;;-147.06;100.00
54453;BME280;40363;52.270;10.546;2023-10-31T05:05:43;74948.06;;;-147.06;100.00
54453;BME280;40363;52.270;10.546;2023-10-31T05:08:09;74948.06;;;-147.06;100.00
54453;BME280;40363;52.270;10.546;2023-10-31T05:10:36;74964.50;;;-147.06;100.00
54453;BME280;40363;52.270;10.546;2023-10-31T05:13:02;74956.28;;;-147.06;100.00
54453;BME280;40363;52.270;10.546;2023-10-31T05:15:30;74960.38;;;-147.06;100.00
54453;BME280;40363;52.270;10.546;2023-10-31T05:17:57;74972.72;;;-147.06;100.00
54453;BME280;40363;52.270;10.546;2023-10-31T05:20:23;74954.22;;;-147.06;100.00
54453;BME280;40363;52.270;10.546;2023-10-31T05:22:50;74985.03;;;-147.06;100.00
54453;BME280;40363;52.270;10.546;2023-10-31T05:25:16;74980.94;;;-147.06;100.00
54453;BME280;40363;52.270;10.546;2023-10-31T05:27:43;74983.00;;;-147.06;100.00
54453;BME280;40363;52.270;10.546;2023-10-31T05:30:13;74985.03;;;-147.06;100.00
54453;BME280;40363;52.270;10.546;2023-10-31T05:32:41;74993.25;;;-147.06;100.00
54453;BME280;40363;52.270;10.546;2023-10-31T05:35:08;74997.38;;;-147.06;100.00
54453;BME280;40363;52.270;10.546;2023-10-31T05:37:35;75009.69;;;-147.06;100.00
54453;BME280;40363;52.270;10.546;2023-10-31T05:40:01;75009.69;;;-147.06;100.00
54453;BME280;40363;52.270;10.546;2023-10-31T05:42:28;75009.69;;;-147.06;100.00
54453;BME280;40363;52.270;10.546;2023-10-31T05:44:55;75019.97;;;-147.06;100.00
54453;BME280;40363;52.270;10.546;2023-10-31T05:47:22;75024.06;;;-147.06;100.00
54453;BME280;40363;52.270;10.546;2023-10-31T05:49:50;75030.25;;;-147.06;100.00
54453;BME280;40363;52.270;10.546;2023-10-31T05:52:17;75036.41;;;-147.06;100.00
54453;BME280;40363;52.270;10.546;2023-10-31T05:54:43;75054.91;;;-147.06;100.00
54453;BME280;40363;52.270;10.546;2023-10-31T05:57:10;75038.47;;;-147.06;100.00
54453;BME280;40363;52.270;10.546;2023-10-31T05:59:36;75044.63;;;-147.06;100.00
54453;BME280;40363;52.270;10.546;2023-10-31T06:02:03;75046.69;;;-147.06;100.00
54453;BME280;40363;52.270;10.546;2023-10-31T06:04:30;75046.69;;;-147.06;100.00
54453;BME280;40363;52.270;10.546;2023-10-31T06:06:58;75052.84;;;-147.06;100.00
54453;BME280;40363;52.270;10.546;2023-10-31T06:09:25;75063.13;;;-147.06;100.00
54453;BME280;40363;52.270;10.546;2023-10-31T06:11:51;75054.91;;;-147.06;100.00
54453;BME280;40363;52.270;10.546;2023-10-31T06:14:18;75065.16;;;-147.06;100.00
54453;BME280;40363;52.270;10.546;2023-10-31T06:16:45;75059.00;;;-147.06;100.00
54453;BME280;40363;52.270;10.546;2023-10-31T06:19:12;75071.34;;;-147.06;100.00
54453;BME280;40363;52.270;10.546;2023-10-31T06:21:39;75063.13;;;-147.06;100.00
54453;BME280;40363;52.270;10.546;2023-10-31T06:24:08;75063.13;;;-147.06;99.65
54453;BME280;40363;52.270;10.546;2023-10-31T06:26:34;75079.56;;;-147.06;99.04
54453;BME280;40363;52.270;10.546;2023-10-31T06:29:01;75087.78;;;-147.06;98.54
54453;BME280;40363;52.270;10.546;2023-10-31T06:31:29;75081.59;;;-147.06;98.16
54453;BME280;40363;52.270;10.546;2023-10-31T06:33:55;75096.00;;;-147.06;97.95
54453;BME280;40363;52.270;10.546;2023-10-31T06:36:22;75110.38;;;-147.06;98.79
54453;BME280;40363;52.270;10.546;2023-10-31T06:38:49;75108.31;;;-147.06;98.08
54453;BME280;40363;52.270;10.546;2023-10-31T06:41:17;75120.66;;;-147.06;98.06
54453;BME280;40363;52.270;10.546;2023-10-31T06:43:43;75137.09;;;-147.06;97.65
54453;BME280;40363;52.270;10.546;2023-10-31T06:46:10;75147.34;;;-147.06;98.12
54453;BME280;40363;52.270;10.546;2023-10-31T06:48:37;75161.75;;;-147.06;97.55
54453;BME280;40363;52.270;10.546;2023-10-31T06:51:04;75155.56;;;-147.06;97.86
54453;BME280;40363;52.270;10.546;2023-10-31T06:53:31;75149.41;;;-147.06;98.18
54453;BME280;40363;52.270;10.546;2023-10-31T06:55:57;75157.63;;;-147.06;98.27
54453;BME280;40363;52.270;10.546;2023-10-31T06:58:25;75165.84;;;-147.06;98.56
54453;BME280;40363;52.270;10.546;2023-10-31T07:00:51;75155.56;;;-147.06;98.65
54453;BME280;40363;52.270;10.546;2023-10-31T07:03:20;75155.56;;;-147.06;97.86
54453;BME280;40363;52.270;10.546;2023-10-31T07:05:46;75161.75;;;-147.06;97.85
54453;BME280;40363;52.270;10.546;2023-10-31T07:08:13;75159.69;;;-147.06;97.67
54453;BME280;40363;52.270;10.546;2023-10-31T07:10:39;75137.09;;;-147.06;97.63
54453;BME280;40363;52.270;10.546;2023-10-31T07:13:06;75143.25;;;-147.06;97.91
54453;BME280;40363;52.270;10.546;2023-10-31T07:15:34;75124.75;;;-147.06;97.70
54453;BME280;40363;52.270;10.546;2023-10-31T07:18:04;75141.19;;;-147.06;97.52
54453;BME280;40363;52.270;10.546;2023-10-31T07:20:31;75141.19;;;-147.06;98.35
54453;BME280;40363;52.270;10.546;2023-10-31T07:22:57;75149.41;;;-147.06;97.90
54453;BME280;40363;52.270;10.546;2023-10-31T07:25:24;75145.31;;;-147.06;97.91
54453;BME280;40363;52.270;10.546;2023-10-31T07:27:50;75149.41;;;-147.06;98.32
54453;BME280;40363;52.270;10.546;2023-10-31T07:30:17;75145.31;;;-147.06;98.70
54453;BME280;40363;52.270;10.546;2023-10-31T07:32:46;75149.41;;;-147.06;98.02
54453;BME280;40363;52.270;10.546;2023-10-31T07:35:33;75143.25;;;-147.06;97.79
54453;BME280;40363;52.270;10.546;2023-10-31T07:38:29;75153.53;;;-147.06;98.15
54453;BME280;40363;52.270;10.546;2023-10-31T07:41:01;75153.53;;;-147.06;98.08
54453;BME280;40363;52.270;10.546;2023-10-31T07:43:27;75149.41;;;-147.06;98.30
54453;BME280;40363;52.270;10.546;2023-10-31T07:45:54;75145.31;;;-147.06;98.27
54453;BME280;40363;52.270;10.546;2023-10-31T07:48:22;75135.03;;;-147.06;98.75
54453;BME280;40363;52.270;10.546;2023-10-31T07:50:48;75128.88;;;-147.06;98.01
54453;BME280;40363;52.270;10.546;2023-10-31T07:53:15;75112.44;;;-147.06;98.25
54453;BME280;40363;52.270;10.546;2023-10-31T07:55:41;75112.44;;;-147.06;98.30
54453;BME280;40363;52.270;10.546;2023-10-31T07:58:08;75087.78;;;-147.06;97.72
54453;BME280;40363;52.270;10.546;2023-10-31T08:00:35;75102.16;;;-147.06;97.72
54453;BME280;40363;52.270;10.546;2023-10-31T08:03:23;75110.38;;;-147.06;98.03
54453;BME280;40363;52.270;10.546;2023-10-31T08:05:50;75093.94;;;-147.06;98.40
54453;BME280;40363;52.270;10.546;2023-10-31T08:08:19;75100.09;;;-147.06;98.23
54453;BME280;40363;52.270;10.546;2023-10-31T08:11:03;75116.53;;;-147.06;98.65
54453;BME280;40363;52.270;10.546;2023-10-31T08:13:30;75104.22;;;-147.06;98.90
54453;BME280;40363;52.270;10.546;2023-10-31T08:15:56;75124.75;;;-147.06;99.17
54453;BME280;40363;52.270;10.546;2023-10-31T08:18:24;75104.22;;;-147.06;99.06
54453;BME280;40363;52.270;10.546;2023-10-31T08:20:51;75120.66;;;-147.06;99.11
54453;BME280;40363;52.270;10.546;2023-10-31T08:23:18;75112.44;;;-147.06;99.62
54453;BME280;40363;52.270;10.546;2023-10-31T08:25:44;75106.25;;;-147.06;99.50
54453;BME280;40363;52.270;10.546;2023-10-31T08:28:12;75106.25;;;-147.06;99.32
54453;BME280;40363;52.270;10.546;2023-10-31T08:30:41;75114.47;;;-147.06;99.41
54453;BME280;40363;52.270;10.546;2023-10-31T08:33:12;75112.44;;;-147.06;99.20
54453;BME280;40363;52.270;10.546;2023-10-31T08:35:40;75112.44;;;-147.06;99.41
54453;BME280;40363;52.270;10.546;2023-10-31T08:38:08;75116.53;;;-147.06;99.14
54453;BME280;40363;52.270;10.546;2023-10-31T08:40:34;75130.91;;;-147.06;99.20
54453;BME280;40363;52.270;10.546;2023-10-31T08:43:03;75137.09;;;-147.06;99.72
54453;BME280;40363;52.270;10.546;2023-10-31T08:45:31;75137.09;;;-147.06;100.00
54453;BME280;40363;52.270;10.546;2023-10-31T08:47:58;75137.09;;;-147.06;99.56
54453;BME280;40363;52.270;10.546;2023-10-31T08:50:25;75145.31;;;-147.06;99.65
54453;BME280;40363;52.270;10.546;2023-10-31T08:52:53;75149.41;;;-147.06;99.98
54453;BME280;40363;52.270;10.546;2023-10-31T08:55:19;75153.53;;;-147.06;99.87
54453;BME280;40363;52.270;10.546;2023-10-31T08:57:46;75184.34;;;-147.06;100.00
54453;BME280;40363;52.270;10.546;2023-10-31T09:00:13;75206.94;;;-147.06;100.00
54453;BME280;40363;52.270;10.546;2023-10-31T09:02:40;75231.59;;;-147.06;100.00
54453;BME280;40363;52.270;10.546;2023-10-31T09:05:07;75248.03;;;-147.06;100.00
54453;BME280;40363;52.270;10.546;2023-10-31T09:07:33;75260.38;;;-147.06;100.00
54453;BME280;40363;52.270;10.546;2023-10-31T09:10:02;75260.38;;;-147.06;100.00
54453;BME280;40363;52.270;10.546;2023-10-31T09:12:30;75256.25;;;-147.06;100.00
54453;BME280;40363;52.270;10.546;2023-10-31T09:14:57;75248.03;;;-147.06;100.00
54453;BME280;40363;52.270;10.546;2023-10-31T09:17:23;75231.59;;;-147.06;100.00
54453;BME280;40363;52.270;10.546;2023-10-31T09:19:53;75215.16;;;-147.06;100.00
54453;BME280;40363;52.270;10.546;2023-10-31T09:22:21;75213.09;;;-147.06;100.00
54453;BME280;40363;52.270;10.546;2023-10-31T09:24:48;75231.59;;;-147.06;100.00
54453;BME280;40363;52.270;10.546;2023-10-31T09:27:16;75225.44;;;-147.06;100.00
54453;BME280;40363;52.270;10.546;2023-10-31T09:29:43;75204.88;;;-147.06;100.00
54453;BME280;40363;52.270;10.546;2023-10-31T09:32:09;75188.44;;;-147.06;100.00
54453;BME280;40363;52.270;10.546;2023-10-31T09:34:36;75198.72;;;-147.06;100.00
54453;BME280;40363;52.270;10.546;2023-10-31T09:37:03;75198.72;;;-147.06;100.00
54453;BME280;40363;52.270;10.546;2023-10-31T09:39:30;75182.28;;;-147.06;100.00
54453;BME280;40363;52.270;10.546;2023-10-31T09:41:56;75151.47;;;-147.06;100.00
54453;BME280;40363;52.270;10.546;2023-10-31T09:44:24;75087.78;;;-147.06;99.95
54453;BME280;40363;52.270;10.546;2023-10-31T09:46:51;75052.84;;;-147.06;96.84
54453;BME280;40363;52.270;10.546;2023-10-31T09:49:19;75013.81;;;-147.06;94.89
54453;BME280;40363;52.270;10.546;2023-10-31T09:51:46;75030.25;;;-147.06;94.83
54453;BME280;40363;52.270;10.546;2023-10-31T09:54:14;75048.72;;;-147.06;95.59
54453;BME280;40363;52.270;10.546;2023-10-31T09:56:42;75065.16;;;-147.06;95.65
54453;BME280;40363;52.270;10.546;2023-10-31T09:59:09;75098.03;;;-147.06;95.90
54453;BME280;40363;52.270;10.546;2023-10-31T10:01:37;75114.47;;;-147.06;94.76
54453;BME280;40363;52.270;10.546;2023-10-31T10:04:05;75112.44;;;-147.06;95.02
54453;BME280;40363;52.270;10.546;2023-10-31T10:06:32;75089.81;;;-147.06;95.07
54453;BME280;40363;52.270;10.546;2023-10-31T10:08:58;75034.34;;;-147.06;90.89
54453;BME280;40363;52.270;10.546;2023-10-31T10:11:25;74985.03;;;-147.06;89.91
54453;BME280;40363;52.270;10.546;2023-10-31T10:13:53;74989.16;;;-147.06;89.83
54453;BME280;40363;52.270;10.546;2023-10-31T10:16:28;75026.13;;;-147.06;91.00
54453;BME280;40363;52.270;10.546;2023-10-31T10:18:56;75075.44;;;-147.06;91.84
54453;BME280;40363;52.270;10.546;2023-10-31T10:21:23;75157.63;;;-147.06;94.21
54453;BME280;40363;52.270;10.546;2023-10-31T10:23:51;75178.19;;;-147.06;94.83
54453;BME280;40363;52.270;10.546;2023-10-31T10:26:18;75194.63;;;-147.06;95.37
54453;BME280;40363;52.270;10.546;2023-10-31T10:28:49;75196.66;;;-147.06;95.19
54453;BME280;40363;52.270;10.546;2023-10-31T10:31:15;75178.19;;;-147.06;94.46
54453;BME280;40363;52.270;10.546;2023-10-31T10:33:42;75153.53;;;-147.06;93.31
54453;BME280;40363;52.270;10.546;2023-10-31T10:36:10;75124.75;;;-147.06;92.60
54453;BME280;40363;52.270;10.546;2023-10-31T10:38:37;75149.41;;;-147.06;92.18
54453;BME280;40363;52.270;10.546;2023-10-31T10:41:06;75169.97;;;-147.06;93.05
54453;BME280;40363;52.270;10.546;2023-10-31T10:43:37;75184.34;;;-147.06;93.13
54453;BME280;40363;52.270;10.546;2023-10-31T10:46:05;75176.13;;;-147.06;93.08
54453;BME280;40363;52.270;10.546;2023-10-31T10:48:35;75167.91;;;-147.06;92.50
54453;BME280;40363;52.270;10.546;2023-10-31T10:51:07;75206.94;;;-147.06;93.82
54453;BME280;40363;52.270;10.546;2023-10-31T10:53:43;75229.53;;;-147.06;94.49
54453;BME280;40363;52.270;10.546;2023-10-31T10:56:13;75235.72;;;-147.06;94.55
54453;BME280;40363;52.270;10.546;2023-10-31T10:58:51;75229.53;;;-147.06;94.89
54453;BME280;40363;52.270;10.546;2023-10-31T11:01:19;75256.25;;;-147.06;94.32
54453;BME280;40363;52.270;10.546;2023-10-31T11:03:49;75268.59;;;-147.06;94.52
54453;BME280;40363;52.270;10.546;2023-10-31T11:06:18;75264.47;;;-147.06;94.13
54453;BME280;40363;52.270;10.546;2023-10-31T11:08:50;75239.81;;;-147.06;92.43
54453;BME280;40363;52.270;10.546;2023-10-31T11:11:22;75202.84;;;-147.06;92.13
54453;BME280;40363;52.270;10.546;2023-10-31T11:13:50;75221.31;;;-147.06;92.05
54453;BME280;40363;52.270;10.546;2023-10-31T11:16:21;75178.19;;;-147.06;90.73
54453;BME280;40363;52.270;10.546;2023-10-31T11:18:50;75184.34;;;-147.06;90.86
54453;BME280;40363;52.270;10.546;2023-10-31T11:21:16;75174.06;;;-147.06;90.54
54453;BME280;40363;52.270;10.546;2023-10-31T11:23:43;75176.13;;;-147.06;90.73
54453;BME280;40363;52.270;10.546;2023-10-31T11:26:11;75161.75;;;-147.06;89.94
54453;BME280;40363;52.270;10.546;2023-10-31T11:28:38;75163.78;;;-147.06;89.40
54453;BME280;40363;52.270;10.546;2023-10-31T11:31:04;75147.34;;;-147.06;89.75
54453;BME280;40363;52.270;10.546;2023-10-31T11:33:32;75135.03;;;-147.06;89.58
54453;BME280;40363;52.270;10.546;2023-10-31T11:36:00;75145.31;;;-147.06;89.83
54453;BME280;40363;52.270;10.546;2023-10-31T11:38:32;75143.25;;;-147.06;89.84
54453;BME280;40363;52.270;10.546;2023-10-31T11:41:00;75165.84;;;-147.06;90.79
54453;BME280;40363;52.270;10.546;2023-10-31T11:43:55;75153.53;;;-147.06;89.63
54453;BME280;40363;52.270;10.546;2023-10-31T11:46:22;75161.75;;;-147.06;89.82
54453;BME280;40363;52.270;10.546;2023-10-31T11:48:51;75165.84;;;-147.06;89.94
54453;BME280;40363;52.270;10.546;2023-10-31T11:51:18;75178.19;;;-147.06;90.25
54453;BME280;40363;52.270;10.546;2023-10-31T11:53:44;75186.41;;;-147.06;89.33
54453;BME280;40363;52.270;10.546;2023-10-31T11:56:11;75190.50;;;-147.06;90.07
54453;BME280;40363;52.270;10.546;2023-10-31T11:58:39;75184.34;;;-147.06;90.27
54453;BME280;40363;52.270;10.546;2023-10-31T12:01:09;75182.28;;;-147.06;90.50
54453;BME280;40363;52.270;10.546;2023-10-31T12:03:39;75178.19;;;-147.06;90.39
54453;BME280;40363;52.270;10.546;2023-10-31T12:06:07;75190.50;;;-147.06;90.84
54453;BME280;40363;52.270;10.546;2023-10-31T12:08:37;75178.19;;;-147.06;90.47
54453;BME280;40363;52.270;10.546;2023-10-31T12:11:06;75194.63;;;-147.06;91.30
54453;BME280;40363;52.270;10.546;2023-10-31T12:13:33;75206.94;;;-147.06;91.19
54453;BME280;40363;52.270;10.546;2023-10-31T12:16:01;75213.09;;;-147.06;91.47
54453;BME280;40363;52.270;10.546;2023-10-31T12:18:28;75227.50;;;-147.06;92.55
54453;BME280;40363;52.270;10.546;2023-10-31T12:20:55;75219.28;;;-147.06;92.78
54453;BME280;40363;52.270;10.546;2023-10-31T12:23:22;75235.72;;;-147.06;93.06
54453;BME280;40363;52.270;10.546;2023-10-31T12:25:49;75252.16;;;-147.06;93.86
54453;BME280;40363;52.270;10.546;2023-10-31T12:28:18;75256.25;;;-147.06;94.91